sensor_id;sensor_type;location;lat;lon;timestamp;temperature;humidity
19248;DHT22;9758;48.640;8.148;2022-11-09T00:01:34;17.40;52.80
19248;DHT22;9758;48.640;8.148;2022-11-09T00:04:02;17.40;52.80
19248;DHT22;9758;48.640;8.148;2022-11-09T00:06:30;17.40;52.80
19248;DHT22;9758;48.640;8.148;2022-11-09T00:08:57;17.40;52.80
19248;DHT22;9758;48.640;8.148;2022-11-09T00:11:26;17.50;52.90
19248;DHT22;9758;48.640;8.148;2022-11-09T00:13:53;17.50;52.90
19248;DHT22;9758;48.640;8.148;2022-11-09T00:16:21;17.50;52.90
19248;DHT22;9758;48.640;8.148;2022-11-09T00:18:48;17.50;52.90
19248;DHT22;9758;48.640;8.148;2022-11-09T00:21:17;17.50;52.90
19248;DHT22;9758;48.640;8.148;2022-11-09T00:23:45;17.60;52.90
19248;DHT22;9758;48.640;8.148;2022-11-09T00:26:14;17.60;52.90
19248;DHT22;9758;48.640;8.148;2022-11-09T00:28:42;17.70;53.50
19248;DHT22;9758;48.640;8.148;2022-11-09T00:31:10;17.70;52.80
19248;DHT22;9758;48.640;8.148;2022-11-09T00:33:38;17.80;52.90
19248;DHT22;9758;48.640;8.148;2022-11-09T00:36:07;17.80;53.00
19248;DHT22;9758;48.640;8.148;2022-11-09T00:38:34;17.70;52.70
19248;DHT22;9758;48.640;8.148;2022-11-09T00:41:01;17.60;52.70
19248;DHT22;9758;48.640;8.148;2022-11-09T00:43:28;17.50;52.80
19248;DHT22;9758;48.640;8.148;2022-11-09T00:45:57;17.40;52.90
19248;DHT22;9758;48.640;8.148;2022-11-09T00:48:23;17.30;52.90
19248;DHT22;9758;48.640;8.148;2022-11-09T00:50:50;17.20;53.60
19248;DHT22;9758;48.640;8.148;2022-11-09T00:53:18;17.10;53.00
19248;DHT22;9758;48.640;8.148;2022-11-09T00:55:53;17.00;53.00
19248;DHT22;9758;48.640;8.148;2022-11-09T00:58:20;16.90;53.10
19248;DHT22;9758;48.640;8.148;2022-11-09T01:00:47;16.90;53.20
19248;DHT22;9758;48.640;8.148;2022-11-09T01:03:15;16.90;53.30
19248;DHT22;9758;48.640;8.148;2022-11-09T01:05:42;16.80;53.40
19248;DHT22;9758;48.640;8.148;2022-11-09T01:08:09;16.70;53.40
19248;DHT22;9758;48.640;8.148;2022-11-09T01:10:39;16.70;53.50
19248;DHT22;9758;48.640;8.148;2022-11-09T01:13:06;16.70;53.60
19248;DHT22;9758;48.640;8.148;2022-11-09T01:15:33;16.60;53.60
19248;DHT22;9758;48.640;8.148;2022-11-09T01:18:00;16.60;53.70
19248;DHT22;9758;48.640;8.148;2022-11-09T01:20:28;16.60;53.80
19248;DHT22;9758;48.640;8.148;2022-11-09T01:22:55;16.60;53.70
19248;DHT22;9758;48.640;8.148;2022-11-09T01:25:22;16.50;53.80
19248;DHT22;9758;48.640;8.148;2022-11-09T01:27:49;16.50;53.90
19248;DHT22;9758;48.640;8.148;2022-11-09T01:30:15;16.40;53.90
19248;DHT22;9758;48.640;8.148;2022-11-09T01:32:42;16.40;54.60
19248;DHT22;9758;48.640;8.148;2022-11-09T01:35:09;16.30;54.00
19248;DHT22;9758;48.640;8.148;2022-11-09T01:37:37;16.30;54.10
19248;DHT22;9758;48.640;8.148;2022-11-09T01:40:05;16.30;54.10
19248;DHT22;9758;48.640;8.148;2022-11-09T01:42:35;16.30;54.10
19248;DHT22;9758;48.640;8.148;2022-11-09T01:45:26;16.30;54.10
19248;DHT22;9758;48.640;8.148;2022-11-09T01:47:57;16.30;54.30
19248;DHT22;9758;48.640;8.148;2022-11-09T01:50:33;16.30;54.10
19248;DHT22;9758;48.640;8.148;2022-11-09T01:53:07;16.30;54.20
19248;DHT22;9758;48.640;8.148;2022-11-09T01:55:35;16.30;54.20
19248;DHT22;9758;48.640;8.148;2022-11-09T01:58:06;16.30;54.30
19248;DHT22;9758;48.640;8.148;2022-11-09T02:00:35;16.30;54.70
19248;DHT22;9758;48.640;8.148;2022-11-09T02:03:09;16.20;54.50
19248;DHT22;9758;48.640;8.148;2022-11-09T02:05:40;16.20;54.60
19248;DHT22;9758;48.640;8.148;2022-11-09T02:08:10;16.20;54.50
19248;DHT22;9758;48.640;8.148;2022-11-09T02:10:44;16.20;54.50
19248;DHT22;9758;48.640;8.148;2022-11-09T02:13:15;16.20;54.70
19248;DHT22;9758;48.640;8.148;2022-11-09T02:15:45;16.20;54.80
19248;DHT22;9758;48.640;8.148;2022-11-09T02:18:13;16.20;54.70
19248;DHT22;9758;48.640;8.148;2022-11-09T02:20:46;16.20;54.70
19248;DHT22;9758;48.640;8.148;2022-11-09T02:23:14;16.20;54.80
19248;DHT22;9758;48.640;8.148;2022-11-09T02:25:45;16.20;54.80
19248;DHT22;9758;48.640;8.148;2022-11-09T02:28:15;16.20;55.30
19248;DHT22;9758;48.640;8.148;2022-11-09T02:30:45;16.20;54.70
19248;DHT22;9758;48.640;8.148;2022-11-09T02:33:13;16.20;54.80
19248;DHT22;9758;48.640;8.148;2022-11-09T02:35:51;16.20;54.80
19248;DHT22;9758;48.640;8.148;2022-11-09T02:38:18;16.30;54.80
19248;DHT22;9758;48.640;8.148;2022-11-09T02:40:48;16.30;54.80
19248;DHT22;9758;48.640;8.148;2022-11-09T02:43:16;16.30;54.80
19248;DHT22;9758;48.640;8.148;2022-11-09T02:45:43;16.20;54.80
19248;DHT22;9758;48.640;8.148;2022-11-09T02:48:10;16.30;54.90
19248;DHT22;9758;48.640;8.148;2022-11-09T02:50:37;16.20;54.80
19248;DHT22;9758;48.640;8.148;2022-11-09T02:53:05;16.20;54.90
19248;DHT22;9758;48.640;8.148;2022-11-09T02:55:32;16.20;54.90
19248;DHT22;9758;48.640;8.148;2022-11-09T02:57:58;16.20;54.90
19248;DHT22;9758;48.640;8.148;2022-11-09T03:00:26;16.20;54.90
19248;DHT22;9758;48.640;8.148;2022-11-09T03:02:53;16.20;54.90
19248;DHT22;9758;48.640;8.148;2022-11-09T03:05:20;16.20;55.00
19248;DHT22;9758;48.640;8.148;2022-11-09T03:07:47;16.20;55.00
19248;DHT22;9758;48.640;8.148;2022-11-09T03:10:16;16.20;55.00
19248;DHT22;9758;48.640;8.148;2022-11-09T03:12:42;16.20;55.10
19248;DHT22;9758;48.640;8.148;2022-11-09T03:15:10;16.20;55.10
19248;DHT22;9758;48.640;8.148;2022-11-09T03:17:36;16.20;55.10
19248;DHT22;9758;48.640;8.148;2022-11-09T03:20:04;16.20;55.10
19248;DHT22;9758;48.640;8.148;2022-11-09T03:22:31;16.20;55.10
19248;DHT22;9758;48.640;8.148;2022-11-09T03:24:57;16.20;55.10
19248;DHT22;9758;48.640;8.148;2022-11-09T03:27:26;16.10;55.10
19248;DHT22;9758;48.640;8.148;2022-11-09T03:29:53;16.10;55.20
19248;DHT22;9758;48.640;8.148;2022-11-09T03:32:21;16.20;55.30
19248;DHT22;9758;48.640;8.148;2022-11-09T03:34:48;16.20;55.20
19248;DHT22;9758;48.640;8.148;2022-11-09T03:37:16;16.10;55.30
19248;DHT22;9758;48.640;8.148;2022-11-09T03:39:43;16.20;55.30
19248;DHT22;9758;48.640;8.148;2022-11-09T03:42:09;16.10;55.30
19248;DHT22;9758;48.640;8.148;2022-11-09T03:44:38;16.10;55.50
19248;DHT22;9758;48.640;8.148;2022-11-09T03:47:04;16.10;55.30
19248;DHT22;9758;48.640;8.148;2022-11-09T03:49:31;16.20;55.70
19248;DHT22;9758;48.640;8.148;2022-11-09T03:51:58;16.10;55.60
19248;DHT22;9758;48.640;8.148;2022-11-09T03:54:25;16.10;55.40
19248;DHT22;9758;48.640;8.148;2022-11-09T03:56:51;16.20;56.20
19248;DHT22;9758;48.640;8.148;2022-11-09T03:59:18;16.10;55.40
19248;DHT22;9758;48.640;8.148;2022-11-09T04:01:46;16.10;55.50
19248;DHT22;9758;48.640;8.148;2022-11-09T04:04:13;16.10;55.70
19248;DHT22;9758;48.640;8.148;2022-11-09T04:06:40;16.10;55.80
19248;DHT22;9758;48.640;8.148;2022-11-09T04:09:08;16.10;56.30
19248;DHT22;9758;48.640;8.148;2022-11-09T04:11:35;16.10;56.20
19248;DHT22;9758;48.640;8.148;2022-11-09T04:14:02;16.10;56.20
19248;DHT22;9758;48.640;8.148;2022-11-09T04:16:29;16.10;56.20
19248;DHT22;9758;48.640;8.148;2022-11-09T04:18:58;16.10;56.20
19248;DHT22;9758;48.640;8.148;2022-11-09T04:21:24;16.20;56.20
19248;DHT22;9758;48.640;8.148;2022-11-09T04:23:51;16.20;56.90
19248;DHT22;9758;48.640;8.148;2022-11-09T04:26:18;16.20;57.00
19248;DHT22;9758;48.640;8.148;2022-11-09T04:28:45;16.20;56.00
19248;DHT22;9758;48.640;8.148;2022-11-09T04:31:12;16.20;56.30
19248;DHT22;9758;48.640;8.148;2022-11-09T04:33:38;16.30;56.10
19248;DHT22;9758;48.640;8.148;2022-11-09T04:36:07;16.30;56.40
19248;DHT22;9758;48.640;8.148;2022-11-09T04:38:34;16.30;56.20
19248;DHT22;9758;48.640;8.148;2022-11-09T04:41:02;16.30;56.50
19248;DHT22;9758;48.640;8.148;2022-11-09T04:43:29;16.30;56.50
19248;DHT22;9758;48.640;8.148;2022-11-09T04:45:58;16.30;56.40
19248;DHT22;9758;48.640;8.148;2022-11-09T04:48:25;16.30;56.70
19248;DHT22;9758;48.640;8.148;2022-11-09T04:50:58;16.30;56.30
19248;DHT22;9758;48.640;8.148;2022-11-09T04:53:27;16.30;56.50
19248;DHT22;9758;48.640;8.148;2022-11-09T04:55:54;16.30;56.40
19248;DHT22;9758;48.640;8.148;2022-11-09T04:58:21;16.30;56.50
19248;DHT22;9758;48.640;8.148;2022-11-09T05:00:48;16.40;56.60
19248;DHT22;9758;48.640;8.148;2022-11-09T05:03:15;16.30;56.50
19248;DHT22;9758;48.640;8.148;2022-11-09T05:05:42;16.40;56.40
19248;DHT22;9758;48.640;8.148;2022-11-09T05:08:09;16.40;56.60
19248;DHT22;9758;48.640;8.148;2022-11-09T05:10:37;16.40;56.20
19248;DHT22;9758;48.640;8.148;2022-11-09T05:13:05;16.40;56.40
19248;DHT22;9758;48.640;8.148;2022-11-09T05:15:34;16.40;56.40
19248;DHT22;9758;48.640;8.148;2022-11-09T05:18:01;16.50;56.30
19248;DHT22;9758;48.640;8.148;2022-11-09T05:20:29;16.50;56.40
19248;DHT22;9758;48.640;8.148;2022-11-09T05:22:56;16.50;56.30
19248;DHT22;9758;48.640;8.148;2022-11-09T05:25:42;16.60;56.20
19248;DHT22;9758;48.640;8.148;2022-11-09T05:28:10;16.50;56.40
19248;DHT22;9758;48.640;8.148;2022-11-09T05:30:37;16.60;56.20
19248;DHT22;9758;48.640;8.148;2022-11-09T05:33:04;16.60;56.30
19248;DHT22;9758;48.640;8.148;2022-11-09T05:35:31;16.60;56.20
19248;DHT22;9758;48.640;8.148;2022-11-09T05:37:58;16.60;56.20
19248;DHT22;9758;48.640;8.148;2022-11-09T05:40:25;16.60;56.20
19248;DHT22;9758;48.640;8.148;2022-11-09T05:42:53;16.60;56.10
19248;DHT22;9758;48.640;8.148;2022-11-09T05:45:21;16.70;56.10
19248;DHT22;9758;48.640;8.148;2022-11-09T05:47:49;16.70;56.10
19248;DHT22;9758;48.640;8.148;2022-11-09T05:50:17;16.70;56.00
19248;DHT22;9758;48.640;8.148;2022-11-09T05:52:44;16.70;56.30
19248;DHT22;9758;48.640;8.148;2022-11-09T05:55:10;16.70;56.20
19248;DHT22;9758;48.640;8.148;2022-11-09T05:57:37;16.60;56.30
19248;DHT22;9758;48.640;8.148;2022-11-09T06:00:07;16.60;57.10
19248;DHT22;9758;48.640;8.148;2022-11-09T06:02:34;16.50;57.10
19248;DHT22;9758;48.640;8.148;2022-11-09T06:05:02;16.20;56.90
19248;DHT22;9758;48.640;8.148;2022-11-09T06:07:29;16.00;56.80
19248;DHT22;9758;48.640;8.148;2022-11-09T06:09:56;15.80;57.00
19248;DHT22;9758;48.640;8.148;2022-11-09T06:12:23;15.70;58.00
19248;DHT22;9758;48.640;8.148;2022-11-09T06:14:49;15.60;57.30
19248;DHT22;9758;48.640;8.148;2022-11-09T06:17:18;15.50;57.50
19248;DHT22;9758;48.640;8.148;2022-11-09T06:19:45;15.50;57.60
19248;DHT22;9758;48.640;8.148;2022-11-09T06:22:12;15.50;57.70
19248;DHT22;9758;48.640;8.148;2022-11-09T06:24:39;15.50;57.60
19248;DHT22;9758;48.640;8.148;2022-11-09T06:27:06;15.50;57.40
19248;DHT22;9758;48.640;8.148;2022-11-09T06:29:33;15.50;57.50
19248;DHT22;9758;48.640;8.148;2022-11-09T06:32:00;15.40;57.50
19248;DHT22;9758;48.640;8.148;2022-11-09T06:34:28;15.40;57.60
19248;DHT22;9758;48.640;8.148;2022-11-09T06:36:55;15.40;57.60
19248;DHT22;9758;48.640;8.148;2022-11-09T06:39:22;15.40;57.50
19248;DHT22;9758;48.640;8.148;2022-11-09T06:41:49;15.40;57.60
19248;DHT22;9758;48.640;8.148;2022-11-09T06:44:15;15.30;57.60
19248;DHT22;9758;48.640;8.148;2022-11-09T06:46:42;15.30;57.60
19248;DHT22;9758;48.640;8.148;2022-11-09T06:49:10;15.40;57.60
19248;DHT22;9758;48.640;8.148;2022-11-09T06:51:38;15.30;57.40
19248;DHT22;9758;48.640;8.148;2022-11-09T06:54:05;15.40;57.70
19248;DHT22;9758;48.640;8.148;2022-11-09T06:56:32;15.30;57.70
19248;DHT22;9758;48.640;8.148;2022-11-09T06:59:06;15.30;57.90
19248;DHT22;9758;48.640;8.148;2022-11-09T07:01:33;15.40;57.90
19248;DHT22;9758;48.640;8.148;2022-11-09T07:04:01;15.40;57.70
19248;DHT22;9758;48.640;8.148;2022-11-09T07:06:28;15.40;57.60
19248;DHT22;9758;48.640;8.148;2022-11-09T07:08:56;15.40;57.50
19248;DHT22;9758;48.640;8.148;2022-11-09T07:11:23;15.50;57.60
19248;DHT22;9758;48.640;8.148;2022-11-09T07:13:50;15.40;58.10
19248;DHT22;9758;48.640;8.148;2022-11-09T07:16:17;15.40;57.60
19248;DHT22;9758;48.640;8.148;2022-11-09T07:18:44;15.40;57.70
19248;DHT22;9758;48.640;8.148;2022-11-09T07:21:18;15.40;57.80
19248;DHT22;9758;48.640;8.148;2022-11-09T07:23:46;15.40;57.80
19248;DHT22;9758;48.640;8.148;2022-11-09T07:26:16;15.30;58.00
19248;DHT22;9758;48.640;8.148;2022-11-09T07:28:43;15.30;57.70
19248;DHT22;9758;48.640;8.148;2022-11-09T07:31:10;15.30;58.00
19248;DHT22;9758;48.640;8.148;2022-11-09T07:33:36;15.30;58.00
19248;DHT22;9758;48.640;8.148;2022-11-09T07:36:04;15.30;58.20
19248;DHT22;9758;48.640;8.148;2022-11-09T07:38:31;15.30;58.00
19248;DHT22;9758;48.640;8.148;2022-11-09T07:40:58;15.30;58.20
19248;DHT22;9758;48.640;8.148;2022-11-09T07:43:28;15.30;58.10
19248;DHT22;9758;48.640;8.148;2022-11-09T07:45:55;15.30;58.10
19248;DHT22;9758;48.640;8.148;2022-11-09T07:48:22;15.30;58.10
19248;DHT22;9758;48.640;8.148;2022-11-09T07:50:49;15.30;58.00
19248;DHT22;9758;48.640;8.148;2022-11-09T07:53:16;15.30;58.60
19248;DHT22;9758;48.640;8.148;2022-11-09T07:55:55;15.30;58.10
19248;DHT22;9758;48.640;8.148;2022-11-09T07:58:22;15.40;58.00
19248;DHT22;9758;48.640;8.148;2022-11-09T08:00:50;15.40;58.20
19248;DHT22;9758;48.640;8.148;2022-11-09T08:03:17;15.40;58.00
19248;DHT22;9758;48.640;8.148;2022-11-09T08:05:45;15.40;57.90
19248;DHT22;9758;48.640;8.148;2022-11-09T08:08:12;15.50;57.90
19248;DHT22;9758;48.640;8.148;2022-11-09T08:10:41;15.50;57.80
19248;DHT22;9758;48.640;8.148;2022-11-09T08:13:12;15.50;57.80
19248;DHT22;9758;48.640;8.148;2022-11-09T08:15:40;15.60;58.00
19248;DHT22;9758;48.640;8.148;2022-11-09T08:18:13;15.60;58.10
19248;DHT22;9758;48.640;8.148;2022-11-09T08:20:40;15.70;58.10
19248;DHT22;9758;48.640;8.148;2022-11-09T08:23:09;15.60;58.10
19248;DHT22;9758;48.640;8.148;2022-11-09T08:25:36;15.70;58.00
19248;DHT22;9758;48.640;8.148;2022-11-09T08:28:03;15.70;57.90
19248;DHT22;9758;48.640;8.148;2022-11-09T08:30:31;15.80;57.80
19248;DHT22;9758;48.640;8.148;2022-11-09T08:32:58;15.80;57.70
19248;DHT22;9758;48.640;8.148;2022-11-09T08:35:27;15.90;57.80
19248;DHT22;9758;48.640;8.148;2022-11-09T08:37:54;16.00;57.70
19248;DHT22;9758;48.640;8.148;2022-11-09T08:40:23;16.00;57.90
19248;DHT22;9758;48.640;8.148;2022-11-09T08:42:50;16.10;58.00
19248;DHT22;9758;48.640;8.148;2022-11-09T08:45:17;16.20;58.10
19248;DHT22;9758;48.640;8.148;2022-11-09T08:47:45;16.20;57.80
19248;DHT22;9758;48.640;8.148;2022-11-09T08:50:12;16.30;57.80
19248;DHT22;9758;48.640;8.148;2022-11-09T08:52:41;16.30;57.70
19248;DHT22;9758;48.640;8.148;2022-11-09T08:55:08;16.40;57.90
19248;DHT22;9758;48.640;8.148;2022-11-09T08:57:35;16.50;57.60
19248;DHT22;9758;48.640;8.148;2022-11-09T09:00:04;16.50;57.50
19248;DHT22;9758;48.640;8.148;2022-11-09T09:02:31;16.60;57.50
19248;DHT22;9758;48.640;8.148;2022-11-09T09:04:58;16.70;57.50
19248;DHT22;9758;48.640;8.148;2022-11-09T09:07:24;16.80;57.50
19248;DHT22;9758;48.640;8.148;2022-11-09T09:09:54;16.80;57.40
19248;DHT22;9758;48.640;8.148;2022-11-09T09:12:20;16.90;57.30
19248;DHT22;9758;48.640;8.148;2022-11-09T09:14:47;16.90;57.30
19248;DHT22;9758;48.640;8.148;2022-11-09T09:17:15;17.00;57.30
19248;DHT22;9758;48.640;8.148;2022-11-09T09:19:42;17.00;57.20
19248;DHT22;9758;48.640;8.148;2022-11-09T09:22:09;17.00;57.20
19248;DHT22;9758;48.640;8.148;2022-11-09T09:24:35;17.10;57.10
19248;DHT22;9758;48.640;8.148;2022-11-09T09:27:04;17.10;57.20
19248;DHT22;9758;48.640;8.148;2022-11-09T09:29:31;17.20;57.10
19248;DHT22;9758;48.640;8.148;2022-11-09T09:31:57;17.20;57.20
19248;DHT22;9758;48.640;8.148;2022-11-09T09:34:25;17.20;57.10
19248;DHT22;9758;48.640;8.148;2022-11-09T09:36:52;17.20;57.10
19248;DHT22;9758;48.640;8.148;2022-11-09T09:39:19;17.30;57.10
19248;DHT22;9758;48.640;8.148;2022-11-09T09:41:50;17.30;57.20
19248;DHT22;9758;48.640;8.148;2022-11-09T09:44:24;17.30;57.20
19248;DHT22;9758;48.640;8.148;2022-11-09T09:46:58;17.40;57.20
19248;DHT22;9758;48.640;8.148;2022-11-09T09:49:30;17.40;57.30
19248;DHT22;9758;48.640;8.148;2022-11-09T09:52:05;17.40;57.30
19248;DHT22;9758;48.640;8.148;2022-11-09T09:54:41;17.40;57.20
19248;DHT22;9758;48.640;8.148;2022-11-09T09:57:14;17.50;57.30
19248;DHT22;9758;48.640;8.148;2022-11-09T09:59:47;17.40;57.10
19248;DHT22;9758;48.640;8.148;2022-11-09T10:02:20;17.50;57.20
19248;DHT22;9758;48.640;8.148;2022-11-09T10:04:47;17.50;57.10
19248;DHT22;9758;48.640;8.148;2022-11-09T10:07:18;17.50;57.10
19248;DHT22;9758;48.640;8.148;2022-11-09T10:09:57;17.50;57.10
19248;DHT22;9758;48.640;8.148;2022-11-09T10:12:36;17.60;57.10
19248;DHT22;9758;48.640;8.148;2022-11-09T10:15:13;17.60;57.20
19248;DHT22;9758;48.640;8.148;2022-11-09T10:17:59;17.60;57.10
19248;DHT22;9758;48.640;8.148;2022-11-09T10:20:40;17.60;57.00
19248;DHT22;9758;48.640;8.148;2022-11-09T10:23:26;17.60;57.00
19248;DHT22;9758;48.640;8.148;2022-11-09T10:26:03;17.60;57.00
19248;DHT22;9758;48.640;8.148;2022-11-09T10:28:30;17.70;57.00
19248;DHT22;9758;48.640;8.148;2022-11-09T10:31:00;17.70;56.90
19248;DHT22;9758;48.640;8.148;2022-11-09T10:33:28;17.70;56.90
19248;DHT22;9758;48.640;8.148;2022-11-09T10:36:01;17.80;57.00
19248;DHT22;9758;48.640;8.148;2022-11-09T10:38:30;17.80;56.90
19248;DHT22;9758;48.640;8.148;2022-11-09T10:41:01;17.80;57.00
19248;DHT22;9758;48.640;8.148;2022-11-09T10:43:30;17.80;56.90
19248;DHT22;9758;48.640;8.148;2022-11-09T10:46:00;17.80;57.00
19248;DHT22;9758;48.640;8.148;2022-11-09T10:48:31;17.80;56.90
19248;DHT22;9758;48.640;8.148;2022-11-09T10:50:59;17.80;57.00
19248;DHT22;9758;48.640;8.148;2022-11-09T10:53:27;17.80;56.90
19248;DHT22;9758;48.640;8.148;2022-11-09T10:55:55;17.90;56.90
19248;DHT22;9758;48.640;8.148;2022-11-09T10:58:25;17.90;56.90
19248;DHT22;9758;48.640;8.148;2022-11-09T11:00:57;17.90;56.80
19248;DHT22;9758;48.640;8.148;2022-11-09T11:03:26;17.90;56.80
19248;DHT22;9758;48.640;8.148;2022-11-09T11:05:56;17.90;56.80
19248;DHT22;9758;48.640;8.148;2022-11-09T11:08:32;18.00;56.80
19248;DHT22;9758;48.640;8.148;2022-11-09T11:13:49;18.00;56.80
19248;DHT22;9758;48.640;8.148;2022-11-09T11:16:26;18.00;56.80
19248;DHT22;9758;48.640;8.148;2022-11-09T11:18:54;18.00;56.80
19248;DHT22;9758;48.640;8.148;2022-11-09T11:21:23;18.00;56.80
19248;DHT22;9758;48.640;8.148;2022-11-09T11:24:10;18.10;56.90
19248;DHT22;9758;48.640;8.148;2022-11-09T11:26:41;18.00;56.80
19248;DHT22;9758;48.640;8.148;2022-11-09T11:29:20;18.10;56.90
19248;DHT22;9758;48.640;8.148;2022-11-09T11:31:48;18.10;56.90
19248;DHT22;9758;48.640;8.148;2022-11-09T11:34:16;18.20;56.80
19248;DHT22;9758;48.640;8.148;2022-11-09T11:36:50;18.20;56.80
19248;DHT22;9758;48.640;8.148;2022-11-09T11:39:33;18.20;56.70
19248;DHT22;9758;48.640;8.148;2022-11-09T11:42:16;18.20;56.70
19248;DHT22;9758;48.640;8.148;2022-11-09T11:44:58;18.20;57.20
19248;DHT22;9758;48.640;8.148;2022-11-09T11:47:35;18.20;56.80
19248;DHT22;9758;48.640;8.148;2022-11-09T11:50:26;18.20;56.80
19248;DHT22;9758;48.640;8.148;2022-11-09T11:53:12;18.10;56.80
19248;DHT22;9758;48.640;8.148;2022-11-09T11:56:20;18.10;56.70
19248;DHT22;9758;48.640;8.148;2022-11-09T11:59:06;18.20;56.90
19248;DHT22;9758;48.640;8.148;2022-11-09T12:01:47;18.10;56.80
19248;DHT22;9758;48.640;8.148;2022-11-09T12:04:35;18.10;56.80
19248;DHT22;9758;48.640;8.148;2022-11-09T12:07:18;18.10;56.90
19248;DHT22;9758;48.640;8.148;2022-11-09T12:12:58;18.10;56.80
19248;DHT22;9758;48.640;8.148;2022-11-09T12:15:33;18.10;56.70
19248;DHT22;9758;48.640;8.148;2022-11-09T12:18:15;18.10;56.80
19248;DHT22;9758;48.640;8.148;2022-11-09T12:20:52;18.10;56.80
19248;DHT22;9758;48.640;8.148;2022-11-09T12:23:34;18.00;56.80
19248;DHT22;9758;48.640;8.148;2022-11-09T12:26:12;18.00;56.90
19248;DHT22;9758;48.640;8.148;2022-11-09T12:28:56;18.00;57.00
19248;DHT22;9758;48.640;8.148;2022-11-09T12:31:32;18.00;57.10
19248;DHT22;9758;48.640;8.148;2022-11-09T12:34:06;18.00;57.00
19248;DHT22;9758;48.640;8.148;2022-11-09T12:36:39;18.00;57.00
19248;DHT22;9758;48.640;8.148;2022-11-09T12:39:15;18.00;57.20
19248;DHT22;9758;48.640;8.148;2022-11-09T12:41:47;17.90;57.00
19248;DHT22;9758;48.640;8.148;2022-11-09T12:44:17;17.90;57.00
19248;DHT22;9758;48.640;8.148;2022-11-09T12:46:49;17.90;57.00
19248;DHT22;9758;48.640;8.148;2022-11-09T12:49:29;17.90;57.10
19248;DHT22;9758;48.640;8.148;2022-11-09T12:51:57;17.90;57.10
19248;DHT22;9758;48.640;8.148;2022-11-09T12:54:34;18.00;57.20
19248;DHT22;9758;48.640;8.148;2022-11-09T12:57:06;18.00;57.10
19248;DHT22;9758;48.640;8.148;2022-11-09T12:59:35;18.00;57.10
19248;DHT22;9758;48.640;8.148;2022-11-09T13:02:03;18.10;57.10
19248;DHT22;9758;48.640;8.148;2022-11-09T13:04:31;18.10;57.90
19248;DHT22;9758;48.640;8.148;2022-11-09T13:07:18;18.00;57.10
19248;DHT22;9758;48.640;8.148;2022-11-09T13:09:55;18.00;57.20
19248;DHT22;9758;48.640;8.148;2022-11-09T13:12:36;18.00;57.20
19248;DHT22;9758;48.640;8.148;2022-11-09T13:15:26;17.90;57.20
19248;DHT22;9758;48.640;8.148;2022-11-09T13:18:02;17.90;57.30
19248;DHT22;9758;48.640;8.148;2022-11-09T13:20:44;17.80;57.30
19248;DHT22;9758;48.640;8.148;2022-11-09T13:23:30;17.80;57.30
19248;DHT22;9758;48.640;8.148;2022-11-09T13:25:59;17.80;57.50
19248;DHT22;9758;48.640;8.148;2022-11-09T13:28:43;17.80;57.50
19248;DHT22;9758;48.640;8.148;2022-11-09T13:34:42;17.70;57.50
19248;DHT22;9758;48.640;8.148;2022-11-09T13:37:45;17.70;57.50
19248;DHT22;9758;48.640;8.148;2022-11-09T13:40:42;17.60;57.50
19248;DHT22;9758;48.640;8.148;2022-11-09T13:43:23;17.60;57.50
19248;DHT22;9758;48.640;8.148;2022-11-09T13:45:53;17.60;57.50
19248;DHT22;9758;48.640;8.148;2022-11-09T13:48:33;17.50;57.40
19248;DHT22;9758;48.640;8.148;2022-11-09T13:51:02;17.50;57.50
19248;DHT22;9758;48.640;8.148;2022-11-09T13:53:47;17.50;57.50
19248;DHT22;9758;48.640;8.148;2022-11-09T13:56:22;17.40;57.70
19248;DHT22;9758;48.640;8.148;2022-11-09T13:58:53;17.40;57.70
19248;DHT22;9758;48.640;8.148;2022-11-09T14:01:25;17.30;57.60
19248;DHT22;9758;48.640;8.148;2022-11-09T14:03:53;17.30;57.70
19248;DHT22;9758;48.640;8.148;2022-11-09T14:06:20;17.30;57.70
19248;DHT22;9758;48.640;8.148;2022-11-09T14:08:49;17.20;57.80
19248;DHT22;9758;48.640;8.148;2022-11-09T14:11:41;17.10;57.80
19248;DHT22;9758;48.640;8.148;2022-11-09T14:17:34;17.00;58.30
19248;DHT22;9758;48.640;8.148;2022-11-09T14:20:10;17.00;58.20
19248;DHT22;9758;48.640;8.148;2022-11-09T14:22:39;16.90;58.20
19248;DHT22;9758;48.640;8.148;2022-11-09T14:25:34;16.90;58.20
19248;DHT22;9758;48.640;8.148;2022-11-09T14:28:01;16.80;58.30
19248;DHT22;9758;48.640;8.148;2022-11-09T14:30:30;16.80;58.30
19248;DHT22;9758;48.640;8.148;2022-11-09T14:32:58;16.80;58.30
19248;DHT22;9758;48.640;8.148;2022-11-09T14:35:28;16.70;58.30
19248;DHT22;9758;48.640;8.148;2022-11-09T14:37:57;16.70;58.30
19248;DHT22;9758;48.640;8.148;2022-11-09T14:40:26;16.70;58.30
19248;DHT22;9758;48.640;8.148;2022-11-09T14:42:55;16.70;58.30
19248;DHT22;9758;48.640;8.148;2022-11-09T14:45:24;16.70;58.30
19248;DHT22;9758;48.640;8.148;2022-11-09T14:47:55;16.70;58.30
19248;DHT22;9758;48.640;8.148;2022-11-09T14:50:27;16.70;58.30
19248;DHT22;9758;48.640;8.148;2022-11-09T14:52:54;16.70;58.30
19248;DHT22;9758;48.640;8.148;2022-11-09T14:55:23;16.70;58.30
19248;DHT22;9758;48.640;8.148;2022-11-09T14:57:53;16.70;58.30
19248;DHT22;9758;48.640;8.148;2022-11-09T15:00:26;16.70;58.50
19248;DHT22;9758;48.640;8.148;2022-11-09T15:02:54;16.70;58.30
19248;DHT22;9758;48.640;8.148;2022-11-09T15:05:32;16.70;58.30
19248;DHT22;9758;48.640;8.148;2022-11-09T15:08:00;16.70;58.30
19248;DHT22;9758;48.640;8.148;2022-11-09T15:10:28;16.60;58.30
19248;DHT22;9758;48.640;8.148;2022-11-09T15:12:59;16.60;58.20
19248;DHT22;9758;48.640;8.148;2022-11-09T15:15:29;16.60;58.30
19248;DHT22;9758;48.640;8.148;2022-11-09T15:17:57;16.60;58.30
19248;DHT22;9758;48.640;8.148;2022-11-09T15:20:29;16.60;58.30
19248;DHT22;9758;48.640;8.148;2022-11-09T15:22:58;16.50;58.20
19248;DHT22;9758;48.640;8.148;2022-11-09T15:25:29;16.50;58.30
19248;DHT22;9758;48.640;8.148;2022-11-09T15:28:21;16.50;58.30
19248;DHT22;9758;48.640;8.148;2022-11-09T15:31:06;16.40;58.30
19248;DHT22;9758;48.640;8.148;2022-11-09T15:33:45;16.40;58.40
19248;DHT22;9758;48.640;8.148;2022-11-09T15:36:24;16.40;58.40
19248;DHT22;9758;48.640;8.148;2022-11-09T15:39:00;16.30;58.30
19248;DHT22;9758;48.640;8.148;2022-11-09T15:41:28;16.30;58.40
19248;DHT22;9758;48.640;8.148;2022-11-09T15:43:56;16.30;58.40
19248;DHT22;9758;48.640;8.148;2022-11-09T15:46:26;16.20;58.40
19248;DHT22;9758;48.640;8.148;2022-11-09T15:48:55;16.20;58.50
19248;DHT22;9758;48.640;8.148;2022-11-09T15:51:23;16.20;58.50
19248;DHT22;9758;48.640;8.148;2022-11-09T15:53:50;16.10;58.40
19248;DHT22;9758;48.640;8.148;2022-11-09T15:56:19;16.10;58.40
19248;DHT22;9758;48.640;8.148;2022-11-09T15:58:46;16.10;58.40
19248;DHT22;9758;48.640;8.148;2022-11-09T16:01:17;16.10;58.60
19248;DHT22;9758;48.640;8.148;2022-11-09T16:03:44;16.00;58.50
19248;DHT22;9758;48.640;8.148;2022-11-09T16:06:13;16.00;58.60
19248;DHT22;9758;48.640;8.148;2022-11-09T16:08:45;16.00;58.60
19248;DHT22;9758;48.640;8.148;2022-11-09T16:11:36;15.90;58.50
19248;DHT22;9758;48.640;8.148;2022-11-09T16:14:03;15.90;58.60
19248;DHT22;9758;48.640;8.148;2022-11-09T16:16:30;15.90;58.50
19248;DHT22;9758;48.640;8.148;2022-11-09T16:18:57;15.90;58.50